Terminal Aerodrome Forecast
Issued by NWS Denver/Boulder, CO

Home | Current Version | Previous Version | Text Only | Print | Product List | Glossary On
Versions: 1 2 3 4 5 6 7 8 9 10 11 12 13 14 15 16 17 18 19 20 21 22 23 24 25 26 27 28 29 30 31 32 33 34 35 36 37 38 39 40 41 42 43 44 45 46 47 48 49 50
000
FTUS45 KBOU 020537
TAFDEN
TAF
KDEN 020537Z 0206/0312 21010KT P6SM FEW120 SCT220
     FM021100 25007KT P6SM VCFG SCT080 SCT140
     FM021400 03009KT P6SM FEW080 SCT140 SCT200
     FM022000 06011KT P6SM SCT080 BKN140
      TEMPO 0221/0301 VRB20G32KT -TSRA BKN070CB
     FM030300 15008KT P6SM SCT080 BKN140
     FM030600 22009KT P6SM SCT120 BKN200=

USA.gov is the U.S. government's official web portal to all federal, state and local government web resources and services.